<?xml version="1.0" encoding="UTF-8" standalone="no" ?>
<gpx xmlns="http://www.topografix.com/GPX/1/1" xmlns:xsi="http://www.w3.org/2001/XMLSchema-instance" xsi:schemaLocation="http://www.topografix.com/GPX/1/1 http://www.topografix.com/GPX/1/1/gpx.xsd" version="1.1" creator="VisuGPX - https://www.visugpx.com">
  <metadata>
    <name>St-Gence 23/03/2026 à 14:10</name>
    <desc><![CDATA[Belle balade dans les bois Lenfant, chemins propres. beau temps, merci Jean Paul]]></desc>
  </metadata>
  <wpt lat="45.92204" lon="1.13822">
    <ele>359</ele>
    <name><![CDATA[Point de passage 1]]></name>
    <type><![CDATA[GENERIC]]></type>
  </wpt>
  <wpt lat="45.92156" lon="1.13891">
    <ele>355</ele>
    <name><![CDATA[Point de passage 2]]></name>
    <type><![CDATA[GENERIC]]></type>
  </wpt>
  <trk>
    <name><![CDATA[Randonnée du 23/03/2026 à 14:10]]></name>
    <trkseg>
      <trkpt lat="45.92204" lon="1.13822">
        <ele>359</ele>
        <time>2026-03-23T13:10:10.000Z</time>
      </trkpt>
      <trkpt lat="45.92192" lon="1.13812">
        <ele>359</ele>
        <time>2026-03-23T13:10:13.000Z</time>
      </trkpt>
      <trkpt lat="45.92184" lon="1.13782">
        <ele>359</ele>
        <time>2026-03-23T13:10:15.000Z</time>
      </trkpt>
      <trkpt lat="45.92181" lon="1.13787">
        <ele>359</ele>
        <time>2026-03-23T13:10:18.000Z</time>
      </trkpt>
      <trkpt lat="45.92165" lon="1.13764">
        <ele>359</ele>
        <time>2026-03-23T13:10:24.000Z</time>
      </trkpt>
      <trkpt lat="45.92171" lon="1.1377">
        <ele>359</ele>
        <time>2026-03-23T13:10:30.000Z</time>
      </trkpt>
      <trkpt lat="45.92168" lon="1.13757">
        <ele>359</ele>
        <time>2026-03-23T13:11:23.000Z</time>
      </trkpt>
      <trkpt lat="45.92161" lon="1.1374">
        <ele>359</ele>
        <time>2026-03-23T13:11:40.000Z</time>
      </trkpt>
      <trkpt lat="45.92154" lon="1.13723">
        <ele>360</ele>
        <time>2026-03-23T13:11:53.000Z</time>
      </trkpt>
      <trkpt lat="45.92146" lon="1.13709">
        <ele>360</ele>
        <time>2026-03-23T13:12:08.000Z</time>
      </trkpt>
      <trkpt lat="45.92136" lon="1.13695">
        <ele>361</ele>
        <time>2026-03-23T13:12:20.000Z</time>
      </trkpt>
      <trkpt lat="45.92125" lon="1.1368">
        <ele>361</ele>
        <time>2026-03-23T13:12:35.000Z</time>
      </trkpt>
      <trkpt lat="45.92119" lon="1.13661">
        <ele>361</ele>
        <time>2026-03-23T13:12:48.000Z</time>
      </trkpt>
      <trkpt lat="45.92121" lon="1.13642">
        <ele>361</ele>
        <time>2026-03-23T13:13:00.000Z</time>
      </trkpt>
      <trkpt lat="45.92123" lon="1.13623">
        <ele>360</ele>
        <time>2026-03-23T13:13:13.000Z</time>
      </trkpt>
      <trkpt lat="45.92122" lon="1.13603">
        <ele>360</ele>
        <time>2026-03-23T13:13:27.000Z</time>
      </trkpt>
      <trkpt lat="45.92121" lon="1.13582">
        <ele>359</ele>
        <time>2026-03-23T13:13:45.000Z</time>
      </trkpt>
      <trkpt lat="45.92121" lon="1.13562">
        <ele>359</ele>
        <time>2026-03-23T13:14:00.000Z</time>
      </trkpt>
      <trkpt lat="45.92124" lon="1.13543">
        <ele>359</ele>
        <time>2026-03-23T13:14:19.000Z</time>
      </trkpt>
      <trkpt lat="45.92135" lon="1.13531">
        <ele>359</ele>
        <time>2026-03-23T13:14:34.000Z</time>
      </trkpt>
      <trkpt lat="45.92148" lon="1.13523">
        <ele>359</ele>
        <time>2026-03-23T13:14:48.000Z</time>
      </trkpt>
      <trkpt lat="45.9216" lon="1.13513">
        <ele>359</ele>
        <time>2026-03-23T13:15:01.000Z</time>
      </trkpt>
      <trkpt lat="45.92173" lon="1.13505">
        <ele>358</ele>
        <time>2026-03-23T13:15:13.000Z</time>
      </trkpt>
      <trkpt lat="45.92184" lon="1.13494">
        <ele>358</ele>
        <time>2026-03-23T13:15:29.000Z</time>
      </trkpt>
      <trkpt lat="45.92184" lon="1.13476">
        <ele>358</ele>
        <time>2026-03-23T13:15:44.000Z</time>
      </trkpt>
      <trkpt lat="45.92181" lon="1.13456">
        <ele>357</ele>
        <time>2026-03-23T13:16:03.000Z</time>
      </trkpt>
      <trkpt lat="45.9218" lon="1.13436">
        <ele>357</ele>
        <time>2026-03-23T13:16:16.000Z</time>
      </trkpt>
      <trkpt lat="45.92177" lon="1.13416">
        <ele>357</ele>
        <time>2026-03-23T13:16:29.000Z</time>
      </trkpt>
      <trkpt lat="45.92176" lon="1.13396">
        <ele>356</ele>
        <time>2026-03-23T13:16:46.000Z</time>
      </trkpt>
      <trkpt lat="45.92175" lon="1.13377">
        <ele>356</ele>
        <time>2026-03-23T13:16:58.000Z</time>
      </trkpt>
      <trkpt lat="45.92172" lon="1.13358">
        <ele>356</ele>
        <time>2026-03-23T13:17:09.000Z</time>
      </trkpt>
      <trkpt lat="45.92168" lon="1.13338">
        <ele>356</ele>
        <time>2026-03-23T13:17:21.000Z</time>
      </trkpt>
      <trkpt lat="45.92163" lon="1.13317">
        <ele>355</ele>
        <time>2026-03-23T13:17:33.000Z</time>
      </trkpt>
      <trkpt lat="45.92162" lon="1.13296">
        <ele>354</ele>
        <time>2026-03-23T13:17:47.000Z</time>
      </trkpt>
      <trkpt lat="45.92167" lon="1.13279">
        <ele>353</ele>
        <time>2026-03-23T13:18:04.000Z</time>
      </trkpt>
      <trkpt lat="45.92179" lon="1.13273">
        <ele>352</ele>
        <time>2026-03-23T13:18:37.000Z</time>
      </trkpt>
      <trkpt lat="45.92193" lon="1.13274">
        <ele>352</ele>
        <time>2026-03-23T13:18:50.000Z</time>
      </trkpt>
      <trkpt lat="45.92207" lon="1.13276">
        <ele>352</ele>
        <time>2026-03-23T13:19:04.000Z</time>
      </trkpt>
      <trkpt lat="45.92221" lon="1.13275">
        <ele>351</ele>
        <time>2026-03-23T13:19:22.000Z</time>
      </trkpt>
      <trkpt lat="45.92228" lon="1.1326">
        <ele>351</ele>
        <time>2026-03-23T13:19:45.000Z</time>
      </trkpt>
      <trkpt lat="45.92233" lon="1.13243">
        <ele>352</ele>
        <time>2026-03-23T13:20:10.000Z</time>
      </trkpt>
      <trkpt lat="45.92238" lon="1.13225">
        <ele>352</ele>
        <time>2026-03-23T13:20:27.000Z</time>
      </trkpt>
      <trkpt lat="45.92238" lon="1.13206">
        <ele>351</ele>
        <time>2026-03-23T13:20:41.000Z</time>
      </trkpt>
      <trkpt lat="45.92241" lon="1.13187">
        <ele>351</ele>
        <time>2026-03-23T13:20:54.000Z</time>
      </trkpt>
      <trkpt lat="45.9224" lon="1.13168">
        <ele>351</ele>
        <time>2026-03-23T13:21:11.000Z</time>
      </trkpt>
      <trkpt lat="45.92235" lon="1.1315">
        <ele>350</ele>
        <time>2026-03-23T13:21:28.000Z</time>
      </trkpt>
      <trkpt lat="45.92235" lon="1.1313">
        <ele>349</ele>
        <time>2026-03-23T13:21:53.000Z</time>
      </trkpt>
      <trkpt lat="45.92241" lon="1.13111">
        <ele>349</ele>
        <time>2026-03-23T13:22:12.000Z</time>
      </trkpt>
      <trkpt lat="45.92244" lon="1.13091">
        <ele>349</ele>
        <time>2026-03-23T13:22:28.000Z</time>
      </trkpt>
      <trkpt lat="45.92249" lon="1.13078">
        <ele>349</ele>
        <time>2026-03-23T13:22:46.000Z</time>
      </trkpt>
      <trkpt lat="45.92243" lon="1.13091">
        <ele>350</ele>
        <time>2026-03-23T13:27:20.000Z</time>
      </trkpt>
      <trkpt lat="45.92236" lon="1.13107">
        <ele>350</ele>
        <time>2026-03-23T13:27:34.000Z</time>
      </trkpt>
      <trkpt lat="45.92226" lon="1.1312">
        <ele>351</ele>
        <time>2026-03-23T13:27:47.000Z</time>
      </trkpt>
      <trkpt lat="45.92224" lon="1.13137">
        <ele>351</ele>
        <time>2026-03-23T13:28:01.000Z</time>
      </trkpt>
      <trkpt lat="45.92231" lon="1.13151">
        <ele>351</ele>
        <time>2026-03-23T13:28:18.000Z</time>
      </trkpt>
      <trkpt lat="45.92231" lon="1.13169">
        <ele>351</ele>
        <time>2026-03-23T13:28:40.000Z</time>
      </trkpt>
      <trkpt lat="45.92231" lon="1.1319">
        <ele>351</ele>
        <time>2026-03-23T13:29:01.000Z</time>
      </trkpt>
      <trkpt lat="45.92229" lon="1.1321">
        <ele>351</ele>
        <time>2026-03-23T13:29:19.000Z</time>
      </trkpt>
      <trkpt lat="45.92229" lon="1.13231">
        <ele>351</ele>
        <time>2026-03-23T13:29:32.000Z</time>
      </trkpt>
      <trkpt lat="45.92226" lon="1.1325">
        <ele>351</ele>
        <time>2026-03-23T13:29:48.000Z</time>
      </trkpt>
      <trkpt lat="45.92227" lon="1.13269">
        <ele>350</ele>
        <time>2026-03-23T13:30:10.000Z</time>
      </trkpt>
      <trkpt lat="45.92238" lon="1.13278">
        <ele>350</ele>
        <time>2026-03-23T13:30:29.000Z</time>
      </trkpt>
      <trkpt lat="45.92253" lon="1.13277">
        <ele>350</ele>
        <time>2026-03-23T13:30:45.000Z</time>
      </trkpt>
      <trkpt lat="45.92266" lon="1.13271">
        <ele>350</ele>
        <time>2026-03-23T13:31:01.000Z</time>
      </trkpt>
      <trkpt lat="45.92279" lon="1.13263">
        <ele>350</ele>
        <time>2026-03-23T13:31:18.000Z</time>
      </trkpt>
      <trkpt lat="45.92292" lon="1.13254">
        <ele>350</ele>
        <time>2026-03-23T13:31:33.000Z</time>
      </trkpt>
      <trkpt lat="45.92306" lon="1.13248">
        <ele>350</ele>
        <time>2026-03-23T13:31:46.000Z</time>
      </trkpt>
      <trkpt lat="45.9232" lon="1.13241">
        <ele>350</ele>
        <time>2026-03-23T13:32:01.000Z</time>
      </trkpt>
      <trkpt lat="45.92335" lon="1.13236">
        <ele>350</ele>
        <time>2026-03-23T13:32:16.000Z</time>
      </trkpt>
      <trkpt lat="45.92349" lon="1.13236">
        <ele>350</ele>
        <time>2026-03-23T13:32:34.000Z</time>
      </trkpt>
      <trkpt lat="45.92362" lon="1.13243">
        <ele>347</ele>
        <time>2026-03-23T13:32:49.000Z</time>
      </trkpt>
      <trkpt lat="45.92375" lon="1.13252">
        <ele>344</ele>
        <time>2026-03-23T13:33:06.000Z</time>
      </trkpt>
      <trkpt lat="45.92386" lon="1.13266">
        <ele>343</ele>
        <time>2026-03-23T13:33:21.000Z</time>
      </trkpt>
      <trkpt lat="45.92398" lon="1.13279">
        <ele>341</ele>
        <time>2026-03-23T13:33:36.000Z</time>
      </trkpt>
      <trkpt lat="45.9241" lon="1.13289">
        <ele>342</ele>
        <time>2026-03-23T13:33:49.000Z</time>
      </trkpt>
      <trkpt lat="45.92422" lon="1.13297">
        <ele>343</ele>
        <time>2026-03-23T13:34:02.000Z</time>
      </trkpt>
      <trkpt lat="45.92431" lon="1.1331">
        <ele>341</ele>
        <time>2026-03-23T13:34:18.000Z</time>
      </trkpt>
      <trkpt lat="45.92431" lon="1.1333">
        <ele>338</ele>
        <time>2026-03-23T13:34:33.000Z</time>
      </trkpt>
      <trkpt lat="45.92431" lon="1.13346">
        <ele>335</ele>
        <time>2026-03-23T13:34:48.000Z</time>
      </trkpt>
      <trkpt lat="45.92442" lon="1.13347">
        <ele>331</ele>
        <time>2026-03-23T13:35:04.000Z</time>
      </trkpt>
      <trkpt lat="45.92452" lon="1.13334">
        <ele>330</ele>
        <time>2026-03-23T13:35:19.000Z</time>
      </trkpt>
      <trkpt lat="45.92454" lon="1.13315">
        <ele>329</ele>
        <time>2026-03-23T13:35:31.000Z</time>
      </trkpt>
      <trkpt lat="45.92455" lon="1.13296">
        <ele>328</ele>
        <time>2026-03-23T13:35:50.000Z</time>
      </trkpt>
      <trkpt lat="45.92458" lon="1.13278">
        <ele>326</ele>
        <time>2026-03-23T13:38:29.000Z</time>
      </trkpt>
      <trkpt lat="45.92467" lon="1.13267">
        <ele>324</ele>
        <time>2026-03-23T13:38:51.000Z</time>
      </trkpt>
      <trkpt lat="45.92477" lon="1.13278">
        <ele>323</ele>
        <time>2026-03-23T13:39:04.000Z</time>
      </trkpt>
      <trkpt lat="45.92488" lon="1.13291">
        <ele>322</ele>
        <time>2026-03-23T13:39:23.000Z</time>
      </trkpt>
      <trkpt lat="45.92501" lon="1.13304">
        <ele>322</ele>
        <time>2026-03-23T13:40:00.000Z</time>
      </trkpt>
      <trkpt lat="45.92512" lon="1.13316">
        <ele>322</ele>
        <time>2026-03-23T13:40:11.000Z</time>
      </trkpt>
      <trkpt lat="45.92524" lon="1.13321">
        <ele>322</ele>
        <time>2026-03-23T13:40:47.000Z</time>
      </trkpt>
      <trkpt lat="45.92535" lon="1.13335">
        <ele>323</ele>
        <time>2026-03-23T13:41:06.000Z</time>
      </trkpt>
      <trkpt lat="45.92549" lon="1.13342">
        <ele>324</ele>
        <time>2026-03-23T13:41:30.000Z</time>
      </trkpt>
      <trkpt lat="45.92563" lon="1.13339">
        <ele>326</ele>
        <time>2026-03-23T13:41:42.000Z</time>
      </trkpt>
      <trkpt lat="45.92577" lon="1.13332">
        <ele>329</ele>
        <time>2026-03-23T13:41:58.000Z</time>
      </trkpt>
      <trkpt lat="45.9259" lon="1.13323">
        <ele>330</ele>
        <time>2026-03-23T13:42:10.000Z</time>
      </trkpt>
      <trkpt lat="45.92603" lon="1.13319">
        <ele>332</ele>
        <time>2026-03-23T13:42:28.000Z</time>
      </trkpt>
      <trkpt lat="45.92617" lon="1.13319">
        <ele>333</ele>
        <time>2026-03-23T13:42:40.000Z</time>
      </trkpt>
      <trkpt lat="45.9263" lon="1.13317">
        <ele>334</ele>
        <time>2026-03-23T13:42:53.000Z</time>
      </trkpt>
      <trkpt lat="45.92642" lon="1.13318">
        <ele>335</ele>
        <time>2026-03-23T13:43:10.000Z</time>
      </trkpt>
      <trkpt lat="45.92645" lon="1.13336">
        <ele>336</ele>
        <time>2026-03-23T13:43:28.000Z</time>
      </trkpt>
      <trkpt lat="45.92645" lon="1.13356">
        <ele>336</ele>
        <time>2026-03-23T13:43:44.000Z</time>
      </trkpt>
      <trkpt lat="45.92646" lon="1.13375">
        <ele>336</ele>
        <time>2026-03-23T13:44:00.000Z</time>
      </trkpt>
      <trkpt lat="45.9265" lon="1.13394">
        <ele>336</ele>
        <time>2026-03-23T13:44:15.000Z</time>
      </trkpt>
      <trkpt lat="45.92657" lon="1.13412">
        <ele>336</ele>
        <time>2026-03-23T13:44:31.000Z</time>
      </trkpt>
      <trkpt lat="45.92665" lon="1.13429">
        <ele>336</ele>
        <time>2026-03-23T13:44:47.000Z</time>
      </trkpt>
      <trkpt lat="45.92676" lon="1.13441">
        <ele>336</ele>
        <time>2026-03-23T13:45:05.000Z</time>
      </trkpt>
      <trkpt lat="45.9269" lon="1.13451">
        <ele>336</ele>
        <time>2026-03-23T13:45:21.000Z</time>
      </trkpt>
      <trkpt lat="45.92703" lon="1.13458">
        <ele>336</ele>
        <time>2026-03-23T13:45:35.000Z</time>
      </trkpt>
      <trkpt lat="45.92715" lon="1.13467">
        <ele>336</ele>
        <time>2026-03-23T13:45:52.000Z</time>
      </trkpt>
      <trkpt lat="45.92727" lon="1.13476">
        <ele>337</ele>
        <time>2026-03-23T13:46:06.000Z</time>
      </trkpt>
      <trkpt lat="45.92737" lon="1.1349">
        <ele>337</ele>
        <time>2026-03-23T13:46:21.000Z</time>
      </trkpt>
      <trkpt lat="45.92745" lon="1.13506">
        <ele>337</ele>
        <time>2026-03-23T13:46:34.000Z</time>
      </trkpt>
      <trkpt lat="45.92755" lon="1.1352">
        <ele>337</ele>
        <time>2026-03-23T13:46:50.000Z</time>
      </trkpt>
      <trkpt lat="45.92767" lon="1.13531">
        <ele>336</ele>
        <time>2026-03-23T13:47:07.000Z</time>
      </trkpt>
      <trkpt lat="45.92781" lon="1.13532">
        <ele>335</ele>
        <time>2026-03-23T13:47:22.000Z</time>
      </trkpt>
      <trkpt lat="45.92793" lon="1.13532">
        <ele>334</ele>
        <time>2026-03-23T13:47:39.000Z</time>
      </trkpt>
      <trkpt lat="45.9279" lon="1.1355">
        <ele>333</ele>
        <time>2026-03-23T13:50:08.000Z</time>
      </trkpt>
      <trkpt lat="45.92787" lon="1.13569">
        <ele>332</ele>
        <time>2026-03-23T13:50:23.000Z</time>
      </trkpt>
      <trkpt lat="45.92784" lon="1.13589">
        <ele>331</ele>
        <time>2026-03-23T13:50:37.000Z</time>
      </trkpt>
      <trkpt lat="45.92778" lon="1.13608">
        <ele>330</ele>
        <time>2026-03-23T13:50:50.000Z</time>
      </trkpt>
      <trkpt lat="45.92774" lon="1.13628">
        <ele>330</ele>
        <time>2026-03-23T13:51:07.000Z</time>
      </trkpt>
      <trkpt lat="45.92771" lon="1.13647">
        <ele>329</ele>
        <time>2026-03-23T13:51:19.000Z</time>
      </trkpt>
      <trkpt lat="45.92765" lon="1.13666">
        <ele>329</ele>
        <time>2026-03-23T13:51:55.000Z</time>
      </trkpt>
      <trkpt lat="45.92762" lon="1.13685">
        <ele>329</ele>
        <time>2026-03-23T13:52:08.000Z</time>
      </trkpt>
      <trkpt lat="45.92759" lon="1.13704">
        <ele>328</ele>
        <time>2026-03-23T13:52:26.000Z</time>
      </trkpt>
      <trkpt lat="45.92755" lon="1.13723">
        <ele>329</ele>
        <time>2026-03-23T13:52:39.000Z</time>
      </trkpt>
      <trkpt lat="45.92751" lon="1.13742">
        <ele>330</ele>
        <time>2026-03-23T13:52:50.000Z</time>
      </trkpt>
      <trkpt lat="45.92747" lon="1.13762">
        <ele>332</ele>
        <time>2026-03-23T13:53:04.000Z</time>
      </trkpt>
      <trkpt lat="45.92743" lon="1.13782">
        <ele>333</ele>
        <time>2026-03-23T13:53:19.000Z</time>
      </trkpt>
      <trkpt lat="45.92739" lon="1.13805">
        <ele>334</ele>
        <time>2026-03-23T13:53:40.000Z</time>
      </trkpt>
      <trkpt lat="45.92735" lon="1.13826">
        <ele>335</ele>
        <time>2026-03-23T13:53:50.000Z</time>
      </trkpt>
      <trkpt lat="45.92731" lon="1.13845">
        <ele>335</ele>
        <time>2026-03-23T13:54:03.000Z</time>
      </trkpt>
      <trkpt lat="45.92729" lon="1.13865">
        <ele>336</ele>
        <time>2026-03-23T13:54:17.000Z</time>
      </trkpt>
      <trkpt lat="45.92729" lon="1.13884">
        <ele>336</ele>
        <time>2026-03-23T13:54:31.000Z</time>
      </trkpt>
      <trkpt lat="45.92726" lon="1.13904">
        <ele>336</ele>
        <time>2026-03-23T13:54:46.000Z</time>
      </trkpt>
      <trkpt lat="45.92719" lon="1.13923">
        <ele>336</ele>
        <time>2026-03-23T13:55:01.000Z</time>
      </trkpt>
      <trkpt lat="45.92712" lon="1.13941">
        <ele>337</ele>
        <time>2026-03-23T13:55:16.000Z</time>
      </trkpt>
      <trkpt lat="45.92704" lon="1.13959">
        <ele>337</ele>
        <time>2026-03-23T13:55:29.000Z</time>
      </trkpt>
      <trkpt lat="45.92697" lon="1.13977">
        <ele>337</ele>
        <time>2026-03-23T13:55:43.000Z</time>
      </trkpt>
      <trkpt lat="45.92685" lon="1.13985">
        <ele>337</ele>
        <time>2026-03-23T13:55:58.000Z</time>
      </trkpt>
      <trkpt lat="45.92674" lon="1.13977">
        <ele>337</ele>
        <time>2026-03-23T13:56:12.000Z</time>
      </trkpt>
      <trkpt lat="45.92666" lon="1.13961">
        <ele>337</ele>
        <time>2026-03-23T13:56:25.000Z</time>
      </trkpt>
      <trkpt lat="45.9266" lon="1.13942">
        <ele>337</ele>
        <time>2026-03-23T13:56:45.000Z</time>
      </trkpt>
      <trkpt lat="45.92654" lon="1.13924">
        <ele>337</ele>
        <time>2026-03-23T13:56:58.000Z</time>
      </trkpt>
      <trkpt lat="45.92647" lon="1.13907">
        <ele>335</ele>
        <time>2026-03-23T13:57:13.000Z</time>
      </trkpt>
      <trkpt lat="45.92638" lon="1.13894">
        <ele>333</ele>
        <time>2026-03-23T13:57:28.000Z</time>
      </trkpt>
      <trkpt lat="45.92626" lon="1.139">
        <ele>337</ele>
        <time>2026-03-23T13:57:47.000Z</time>
      </trkpt>
      <trkpt lat="45.92616" lon="1.13913">
        <ele>341</ele>
        <time>2026-03-23T13:58:00.000Z</time>
      </trkpt>
      <trkpt lat="45.92604" lon="1.13927">
        <ele>347</ele>
        <time>2026-03-23T13:58:22.000Z</time>
      </trkpt>
      <trkpt lat="45.92592" lon="1.13938">
        <ele>355</ele>
        <time>2026-03-23T13:58:40.000Z</time>
      </trkpt>
      <trkpt lat="45.92579" lon="1.13946">
        <ele>358</ele>
        <time>2026-03-23T13:58:55.000Z</time>
      </trkpt>
      <trkpt lat="45.92565" lon="1.13952">
        <ele>360</ele>
        <time>2026-03-23T13:59:15.000Z</time>
      </trkpt>
      <trkpt lat="45.92552" lon="1.13952">
        <ele>363</ele>
        <time>2026-03-23T13:59:33.000Z</time>
      </trkpt>
      <trkpt lat="45.9254" lon="1.13945">
        <ele>365</ele>
        <time>2026-03-23T13:59:56.000Z</time>
      </trkpt>
      <trkpt lat="45.92526" lon="1.13951">
        <ele>366</ele>
        <time>2026-03-23T14:00:11.000Z</time>
      </trkpt>
      <trkpt lat="45.92515" lon="1.13963">
        <ele>367</ele>
        <time>2026-03-23T14:00:26.000Z</time>
      </trkpt>
      <trkpt lat="45.92505" lon="1.13976">
        <ele>368</ele>
        <time>2026-03-23T14:00:41.000Z</time>
      </trkpt>
      <trkpt lat="45.92496" lon="1.1399">
        <ele>368</ele>
        <time>2026-03-23T14:00:55.000Z</time>
      </trkpt>
      <trkpt lat="45.9249" lon="1.14007">
        <ele>369</ele>
        <time>2026-03-23T14:01:10.000Z</time>
      </trkpt>
      <trkpt lat="45.92484" lon="1.14025">
        <ele>369</ele>
        <time>2026-03-23T14:01:25.000Z</time>
      </trkpt>
      <trkpt lat="45.92476" lon="1.14043">
        <ele>369</ele>
        <time>2026-03-23T14:01:42.000Z</time>
      </trkpt>
      <trkpt lat="45.92466" lon="1.14058">
        <ele>369</ele>
        <time>2026-03-23T14:01:56.000Z</time>
      </trkpt>
      <trkpt lat="45.92454" lon="1.14068">
        <ele>370</ele>
        <time>2026-03-23T14:02:12.000Z</time>
      </trkpt>
      <trkpt lat="45.9244" lon="1.14069">
        <ele>370</ele>
        <time>2026-03-23T14:02:27.000Z</time>
      </trkpt>
      <trkpt lat="45.92427" lon="1.14073">
        <ele>364</ele>
        <time>2026-03-23T14:02:42.000Z</time>
      </trkpt>
      <trkpt lat="45.92418" lon="1.14089">
        <ele>357</ele>
        <time>2026-03-23T14:02:56.000Z</time>
      </trkpt>
      <trkpt lat="45.92411" lon="1.14108">
        <ele>350</ele>
        <time>2026-03-23T14:03:07.000Z</time>
      </trkpt>
      <trkpt lat="45.92403" lon="1.14123">
        <ele>341</ele>
        <time>2026-03-23T14:03:21.000Z</time>
      </trkpt>
      <trkpt lat="45.92398" lon="1.14141">
        <ele>337</ele>
        <time>2026-03-23T14:03:37.000Z</time>
      </trkpt>
      <trkpt lat="45.92392" lon="1.14158">
        <ele>333</ele>
        <time>2026-03-23T14:03:51.000Z</time>
      </trkpt>
      <trkpt lat="45.9238" lon="1.14168">
        <ele>330</ele>
        <time>2026-03-23T14:04:06.000Z</time>
      </trkpt>
      <trkpt lat="45.92368" lon="1.14177">
        <ele>327</ele>
        <time>2026-03-23T14:04:33.000Z</time>
      </trkpt>
      <trkpt lat="45.92358" lon="1.14189">
        <ele>325</ele>
        <time>2026-03-23T14:04:48.000Z</time>
      </trkpt>
      <trkpt lat="45.92344" lon="1.1419">
        <ele>324</ele>
        <time>2026-03-23T14:05:05.000Z</time>
      </trkpt>
      <trkpt lat="45.92331" lon="1.14188">
        <ele>323</ele>
        <time>2026-03-23T14:05:22.000Z</time>
      </trkpt>
      <trkpt lat="45.9232" lon="1.14199">
        <ele>322</ele>
        <time>2026-03-23T14:05:42.000Z</time>
      </trkpt>
      <trkpt lat="45.92309" lon="1.14212">
        <ele>322</ele>
        <time>2026-03-23T14:05:56.000Z</time>
      </trkpt>
      <trkpt lat="45.92299" lon="1.14225">
        <ele>322</ele>
        <time>2026-03-23T14:06:13.000Z</time>
      </trkpt>
      <trkpt lat="45.92288" lon="1.14238">
        <ele>322</ele>
        <time>2026-03-23T14:06:28.000Z</time>
      </trkpt>
      <trkpt lat="45.92276" lon="1.1425">
        <ele>324</ele>
        <time>2026-03-23T14:06:42.000Z</time>
      </trkpt>
      <trkpt lat="45.92265" lon="1.14261">
        <ele>325</ele>
        <time>2026-03-23T14:06:57.000Z</time>
      </trkpt>
      <trkpt lat="45.92254" lon="1.14273">
        <ele>326</ele>
        <time>2026-03-23T14:07:13.000Z</time>
      </trkpt>
      <trkpt lat="45.92242" lon="1.14284">
        <ele>327</ele>
        <time>2026-03-23T14:07:34.000Z</time>
      </trkpt>
      <trkpt lat="45.9223" lon="1.14295">
        <ele>329</ele>
        <time>2026-03-23T14:09:21.000Z</time>
      </trkpt>
      <trkpt lat="45.92218" lon="1.14302">
        <ele>331</ele>
        <time>2026-03-23T14:09:58.000Z</time>
      </trkpt>
      <trkpt lat="45.92208" lon="1.14312">
        <ele>333</ele>
        <time>2026-03-23T14:10:13.000Z</time>
      </trkpt>
      <trkpt lat="45.922" lon="1.14302">
        <ele>337</ele>
        <time>2026-03-23T14:10:32.000Z</time>
      </trkpt>
      <trkpt lat="45.92187" lon="1.14301">
        <ele>338</ele>
        <time>2026-03-23T14:11:18.000Z</time>
      </trkpt>
      <trkpt lat="45.92173" lon="1.14306">
        <ele>339</ele>
        <time>2026-03-23T14:11:57.000Z</time>
      </trkpt>
      <trkpt lat="45.92162" lon="1.14316">
        <ele>340</ele>
        <time>2026-03-23T14:12:16.000Z</time>
      </trkpt>
      <trkpt lat="45.9215" lon="1.14325">
        <ele>341</ele>
        <time>2026-03-23T14:12:29.000Z</time>
      </trkpt>
      <trkpt lat="45.92138" lon="1.14333">
        <ele>341</ele>
        <time>2026-03-23T14:12:45.000Z</time>
      </trkpt>
      <trkpt lat="45.92127" lon="1.14344">
        <ele>342</ele>
        <time>2026-03-23T14:12:57.000Z</time>
      </trkpt>
      <trkpt lat="45.92114" lon="1.14355">
        <ele>342</ele>
        <time>2026-03-23T14:13:13.000Z</time>
      </trkpt>
      <trkpt lat="45.92102" lon="1.14364">
        <ele>342</ele>
        <time>2026-03-23T14:13:26.000Z</time>
      </trkpt>
      <trkpt lat="45.9209" lon="1.14372">
        <ele>342</ele>
        <time>2026-03-23T14:13:41.000Z</time>
      </trkpt>
      <trkpt lat="45.92078" lon="1.14378">
        <ele>343</ele>
        <time>2026-03-23T14:13:52.000Z</time>
      </trkpt>
      <trkpt lat="45.92064" lon="1.14381">
        <ele>343</ele>
        <time>2026-03-23T14:14:04.000Z</time>
      </trkpt>
      <trkpt lat="45.92051" lon="1.14379">
        <ele>343</ele>
        <time>2026-03-23T14:14:20.000Z</time>
      </trkpt>
      <trkpt lat="45.92036" lon="1.1438">
        <ele>342</ele>
        <time>2026-03-23T14:14:35.000Z</time>
      </trkpt>
      <trkpt lat="45.92022" lon="1.14383">
        <ele>342</ele>
        <time>2026-03-23T14:14:51.000Z</time>
      </trkpt>
      <trkpt lat="45.92009" lon="1.1439">
        <ele>342</ele>
        <time>2026-03-23T14:15:03.000Z</time>
      </trkpt>
      <trkpt lat="45.91997" lon="1.14401">
        <ele>342</ele>
        <time>2026-03-23T14:15:18.000Z</time>
      </trkpt>
      <trkpt lat="45.91987" lon="1.14413">
        <ele>343</ele>
        <time>2026-03-23T14:15:31.000Z</time>
      </trkpt>
      <trkpt lat="45.91975" lon="1.14424">
        <ele>345</ele>
        <time>2026-03-23T14:15:49.000Z</time>
      </trkpt>
      <trkpt lat="45.91962" lon="1.14434">
        <ele>346</ele>
        <time>2026-03-23T14:16:07.000Z</time>
      </trkpt>
      <trkpt lat="45.91951" lon="1.14445">
        <ele>348</ele>
        <time>2026-03-23T14:16:23.000Z</time>
      </trkpt>
      <trkpt lat="45.91942" lon="1.1446">
        <ele>349</ele>
        <time>2026-03-23T14:16:37.000Z</time>
      </trkpt>
      <trkpt lat="45.91935" lon="1.14478">
        <ele>349</ele>
        <time>2026-03-23T14:18:23.000Z</time>
      </trkpt>
      <trkpt lat="45.91937" lon="1.14497">
        <ele>349</ele>
        <time>2026-03-23T14:18:35.000Z</time>
      </trkpt>
      <trkpt lat="45.91936" lon="1.14517">
        <ele>349</ele>
        <time>2026-03-23T14:19:38.000Z</time>
      </trkpt>
      <trkpt lat="45.91931" lon="1.14536">
        <ele>349</ele>
        <time>2026-03-23T14:19:55.000Z</time>
      </trkpt>
      <trkpt lat="45.91926" lon="1.14554">
        <ele>348</ele>
        <time>2026-03-23T14:20:12.000Z</time>
      </trkpt>
      <trkpt lat="45.91916" lon="1.14567">
        <ele>347</ele>
        <time>2026-03-23T14:20:34.000Z</time>
      </trkpt>
      <trkpt lat="45.91905" lon="1.14579">
        <ele>347</ele>
        <time>2026-03-23T14:20:46.000Z</time>
      </trkpt>
      <trkpt lat="45.91892" lon="1.14587">
        <ele>347</ele>
        <time>2026-03-23T14:21:04.000Z</time>
      </trkpt>
      <trkpt lat="45.91879" lon="1.14595">
        <ele>348</ele>
        <time>2026-03-23T14:21:28.000Z</time>
      </trkpt>
      <trkpt lat="45.91866" lon="1.14597">
        <ele>349</ele>
        <time>2026-03-23T14:21:38.000Z</time>
      </trkpt>
      <trkpt lat="45.91853" lon="1.14592">
        <ele>350</ele>
        <time>2026-03-23T14:21:51.000Z</time>
      </trkpt>
      <trkpt lat="45.91841" lon="1.14584">
        <ele>351</ele>
        <time>2026-03-23T14:22:07.000Z</time>
      </trkpt>
      <trkpt lat="45.91828" lon="1.1458">
        <ele>351</ele>
        <time>2026-03-23T14:22:20.000Z</time>
      </trkpt>
      <trkpt lat="45.91814" lon="1.14578">
        <ele>350</ele>
        <time>2026-03-23T14:22:33.000Z</time>
      </trkpt>
      <trkpt lat="45.91801" lon="1.14577">
        <ele>349</ele>
        <time>2026-03-23T14:22:48.000Z</time>
      </trkpt>
      <trkpt lat="45.91794" lon="1.14592">
        <ele>348</ele>
        <time>2026-03-23T14:23:27.000Z</time>
      </trkpt>
      <trkpt lat="45.91791" lon="1.14611">
        <ele>347</ele>
        <time>2026-03-23T14:24:25.000Z</time>
      </trkpt>
      <trkpt lat="45.91785" lon="1.14628">
        <ele>345</ele>
        <time>2026-03-23T14:25:17.000Z</time>
      </trkpt>
      <trkpt lat="45.91773" lon="1.14636">
        <ele>344</ele>
        <time>2026-03-23T14:25:32.000Z</time>
      </trkpt>
      <trkpt lat="45.9176" lon="1.14635">
        <ele>342</ele>
        <time>2026-03-23T14:25:53.000Z</time>
      </trkpt>
      <trkpt lat="45.91746" lon="1.14632">
        <ele>341</ele>
        <time>2026-03-23T14:26:04.000Z</time>
      </trkpt>
      <trkpt lat="45.91732" lon="1.1463">
        <ele>340</ele>
        <time>2026-03-23T14:26:15.000Z</time>
      </trkpt>
      <trkpt lat="45.91718" lon="1.14629">
        <ele>339</ele>
        <time>2026-03-23T14:26:28.000Z</time>
      </trkpt>
      <trkpt lat="45.91705" lon="1.14634">
        <ele>338</ele>
        <time>2026-03-23T14:26:46.000Z</time>
      </trkpt>
      <trkpt lat="45.91693" lon="1.14641">
        <ele>337</ele>
        <time>2026-03-23T14:27:01.000Z</time>
      </trkpt>
      <trkpt lat="45.9168" lon="1.14649">
        <ele>337</ele>
        <time>2026-03-23T14:27:21.000Z</time>
      </trkpt>
      <trkpt lat="45.91667" lon="1.14655">
        <ele>337</ele>
        <time>2026-03-23T14:27:36.000Z</time>
      </trkpt>
      <trkpt lat="45.91657" lon="1.14667">
        <ele>337</ele>
        <time>2026-03-23T14:28:01.000Z</time>
      </trkpt>
      <trkpt lat="45.91649" lon="1.14683">
        <ele>337</ele>
        <time>2026-03-23T14:28:10.000Z</time>
      </trkpt>
      <trkpt lat="45.9164" lon="1.14697">
        <ele>337</ele>
        <time>2026-03-23T14:28:27.000Z</time>
      </trkpt>
      <trkpt lat="45.91635" lon="1.14714">
        <ele>337</ele>
        <time>2026-03-23T14:28:45.000Z</time>
      </trkpt>
      <trkpt lat="45.91629" lon="1.14734">
        <ele>337</ele>
        <time>2026-03-23T14:29:03.000Z</time>
      </trkpt>
      <trkpt lat="45.91628" lon="1.14753">
        <ele>338</ele>
        <time>2026-03-23T14:29:19.000Z</time>
      </trkpt>
      <trkpt lat="45.91627" lon="1.14773">
        <ele>339</ele>
        <time>2026-03-23T14:29:35.000Z</time>
      </trkpt>
      <trkpt lat="45.91626" lon="1.14793">
        <ele>340</ele>
        <time>2026-03-23T14:29:51.000Z</time>
      </trkpt>
      <trkpt lat="45.91626" lon="1.14812">
        <ele>342</ele>
        <time>2026-03-23T14:30:10.000Z</time>
      </trkpt>
      <trkpt lat="45.91623" lon="1.14831">
        <ele>344</ele>
        <time>2026-03-23T14:30:22.000Z</time>
      </trkpt>
      <trkpt lat="45.91625" lon="1.1485">
        <ele>346</ele>
        <time>2026-03-23T14:30:38.000Z</time>
      </trkpt>
      <trkpt lat="45.91628" lon="1.1487">
        <ele>348</ele>
        <time>2026-03-23T14:30:57.000Z</time>
      </trkpt>
      <trkpt lat="45.91628" lon="1.14889">
        <ele>350</ele>
        <time>2026-03-23T14:31:23.000Z</time>
      </trkpt>
      <trkpt lat="45.91629" lon="1.1491">
        <ele>351</ele>
        <time>2026-03-23T14:31:37.000Z</time>
      </trkpt>
      <trkpt lat="45.91625" lon="1.14928">
        <ele>351</ele>
        <time>2026-03-23T14:31:52.000Z</time>
      </trkpt>
      <trkpt lat="45.91615" lon="1.14944">
        <ele>351</ele>
        <time>2026-03-23T14:32:09.000Z</time>
      </trkpt>
      <trkpt lat="45.91606" lon="1.1496">
        <ele>351</ele>
        <time>2026-03-23T14:32:29.000Z</time>
      </trkpt>
      <trkpt lat="45.91596" lon="1.14973">
        <ele>351</ele>
        <time>2026-03-23T14:32:41.000Z</time>
      </trkpt>
      <trkpt lat="45.91584" lon="1.14983">
        <ele>351</ele>
        <time>2026-03-23T14:32:56.000Z</time>
      </trkpt>
      <trkpt lat="45.9157" lon="1.1499">
        <ele>346</ele>
        <time>2026-03-23T14:33:11.000Z</time>
      </trkpt>
      <trkpt lat="45.91557" lon="1.14998">
        <ele>335</ele>
        <time>2026-03-23T14:33:21.000Z</time>
      </trkpt>
      <trkpt lat="45.91545" lon="1.15004">
        <ele>321</ele>
        <time>2026-03-23T14:33:37.000Z</time>
      </trkpt>
      <trkpt lat="45.91532" lon="1.15013">
        <ele>305</ele>
        <time>2026-03-23T14:33:56.000Z</time>
      </trkpt>
      <trkpt lat="45.91519" lon="1.15018">
        <ele>287</ele>
        <time>2026-03-23T14:34:10.000Z</time>
      </trkpt>
      <trkpt lat="45.91505" lon="1.15021">
        <ele>272</ele>
        <time>2026-03-23T14:34:23.000Z</time>
      </trkpt>
      <trkpt lat="45.91491" lon="1.15027">
        <ele>258</ele>
        <time>2026-03-23T14:34:42.000Z</time>
      </trkpt>
      <trkpt lat="45.91478" lon="1.15036">
        <ele>244</ele>
        <time>2026-03-23T14:34:54.000Z</time>
      </trkpt>
      <trkpt lat="45.91466" lon="1.15046">
        <ele>237</ele>
        <time>2026-03-23T14:35:05.000Z</time>
      </trkpt>
      <trkpt lat="45.91456" lon="1.1506">
        <ele>230</ele>
        <time>2026-03-23T14:35:22.000Z</time>
      </trkpt>
      <trkpt lat="45.91448" lon="1.15076">
        <ele>225</ele>
        <time>2026-03-23T14:35:33.000Z</time>
      </trkpt>
      <trkpt lat="45.91438" lon="1.1509">
        <ele>221</ele>
        <time>2026-03-23T14:35:48.000Z</time>
      </trkpt>
      <trkpt lat="45.9143" lon="1.15106">
        <ele>223</ele>
        <time>2026-03-23T14:36:14.000Z</time>
      </trkpt>
      <trkpt lat="45.9142" lon="1.15118">
        <ele>228</ele>
        <time>2026-03-23T14:36:26.000Z</time>
      </trkpt>
      <trkpt lat="45.91409" lon="1.15129">
        <ele>236</ele>
        <time>2026-03-23T14:36:38.000Z</time>
      </trkpt>
      <trkpt lat="45.91397" lon="1.15142">
        <ele>249</ele>
        <time>2026-03-23T14:36:52.000Z</time>
      </trkpt>
      <trkpt lat="45.91386" lon="1.15153">
        <ele>262</ele>
        <time>2026-03-23T14:37:03.000Z</time>
      </trkpt>
      <trkpt lat="45.91375" lon="1.15166">
        <ele>277</ele>
        <time>2026-03-23T14:37:35.000Z</time>
      </trkpt>
      <trkpt lat="45.91365" lon="1.15182">
        <ele>294</ele>
        <time>2026-03-23T14:37:45.000Z</time>
      </trkpt>
      <trkpt lat="45.91352" lon="1.15195">
        <ele>310</ele>
        <time>2026-03-23T14:39:11.000Z</time>
      </trkpt>
      <trkpt lat="45.91337" lon="1.15197">
        <ele>324</ele>
        <time>2026-03-23T14:39:31.000Z</time>
      </trkpt>
      <trkpt lat="45.91323" lon="1.15197">
        <ele>336</ele>
        <time>2026-03-23T14:39:47.000Z</time>
      </trkpt>
      <trkpt lat="45.91309" lon="1.15199">
        <ele>344</ele>
        <time>2026-03-23T14:40:03.000Z</time>
      </trkpt>
      <trkpt lat="45.91295" lon="1.15202">
        <ele>350</ele>
        <time>2026-03-23T14:40:19.000Z</time>
      </trkpt>
      <trkpt lat="45.91282" lon="1.15202">
        <ele>356</ele>
        <time>2026-03-23T14:40:35.000Z</time>
      </trkpt>
      <trkpt lat="45.91269" lon="1.15206">
        <ele>360</ele>
        <time>2026-03-23T14:40:52.000Z</time>
      </trkpt>
      <trkpt lat="45.91255" lon="1.15209">
        <ele>363</ele>
        <time>2026-03-23T14:41:11.000Z</time>
      </trkpt>
      <trkpt lat="45.91241" lon="1.15212">
        <ele>366</ele>
        <time>2026-03-23T14:41:31.000Z</time>
      </trkpt>
      <trkpt lat="45.91227" lon="1.15215">
        <ele>368</ele>
        <time>2026-03-23T14:41:49.000Z</time>
      </trkpt>
      <trkpt lat="45.91215" lon="1.15223">
        <ele>371</ele>
        <time>2026-03-23T14:42:14.000Z</time>
      </trkpt>
      <trkpt lat="45.91204" lon="1.15233">
        <ele>373</ele>
        <time>2026-03-23T14:42:28.000Z</time>
      </trkpt>
      <trkpt lat="45.91192" lon="1.15241">
        <ele>373</ele>
        <time>2026-03-23T14:42:41.000Z</time>
      </trkpt>
      <trkpt lat="45.91183" lon="1.15249">
        <ele>373</ele>
        <time>2026-03-23T14:42:57.000Z</time>
      </trkpt>
      <trkpt lat="45.91191" lon="1.15239">
        <ele>372</ele>
        <time>2026-03-23T14:43:33.000Z</time>
      </trkpt>
      <trkpt lat="45.91204" lon="1.15225">
        <ele>371</ele>
        <time>2026-03-23T14:45:14.000Z</time>
      </trkpt>
      <trkpt lat="45.91216" lon="1.15214">
        <ele>370</ele>
        <time>2026-03-23T14:45:25.000Z</time>
      </trkpt>
      <trkpt lat="45.91227" lon="1.15203">
        <ele>368</ele>
        <time>2026-03-23T14:45:40.000Z</time>
      </trkpt>
      <trkpt lat="45.91234" lon="1.15186">
        <ele>367</ele>
        <time>2026-03-23T14:46:04.000Z</time>
      </trkpt>
      <trkpt lat="45.91241" lon="1.15165">
        <ele>365</ele>
        <time>2026-03-23T14:46:36.000Z</time>
      </trkpt>
      <trkpt lat="45.91251" lon="1.1515">
        <ele>364</ele>
        <time>2026-03-23T14:46:49.000Z</time>
      </trkpt>
      <trkpt lat="45.91262" lon="1.15135">
        <ele>363</ele>
        <time>2026-03-23T14:47:17.000Z</time>
      </trkpt>
      <trkpt lat="45.91273" lon="1.15114">
        <ele>361</ele>
        <time>2026-03-23T14:47:38.000Z</time>
      </trkpt>
      <trkpt lat="45.91281" lon="1.15091">
        <ele>359</ele>
        <time>2026-03-23T14:48:46.000Z</time>
      </trkpt>
      <trkpt lat="45.91293" lon="1.15077">
        <ele>357</ele>
        <time>2026-03-23T14:49:02.000Z</time>
      </trkpt>
      <trkpt lat="45.91301" lon="1.1506">
        <ele>355</ele>
        <time>2026-03-23T14:49:18.000Z</time>
      </trkpt>
      <trkpt lat="45.91307" lon="1.15041">
        <ele>353</ele>
        <time>2026-03-23T14:49:31.000Z</time>
      </trkpt>
      <trkpt lat="45.91312" lon="1.15023">
        <ele>352</ele>
        <time>2026-03-23T14:49:42.000Z</time>
      </trkpt>
      <trkpt lat="45.91313" lon="1.15004">
        <ele>350</ele>
        <time>2026-03-23T14:49:55.000Z</time>
      </trkpt>
      <trkpt lat="45.91303" lon="1.14984">
        <ele>348</ele>
        <time>2026-03-23T14:50:19.000Z</time>
      </trkpt>
      <trkpt lat="45.91289" lon="1.14958">
        <ele>347</ele>
        <time>2026-03-23T14:51:02.000Z</time>
      </trkpt>
      <trkpt lat="45.91274" lon="1.14931">
        <ele>345</ele>
        <time>2026-03-23T14:51:39.000Z</time>
      </trkpt>
      <trkpt lat="45.91263" lon="1.14917">
        <ele>343</ele>
        <time>2026-03-23T14:51:55.000Z</time>
      </trkpt>
      <trkpt lat="45.9125" lon="1.14908">
        <ele>344</ele>
        <time>2026-03-23T14:52:18.000Z</time>
      </trkpt>
      <trkpt lat="45.9124" lon="1.14892">
        <ele>347</ele>
        <time>2026-03-23T14:52:33.000Z</time>
      </trkpt>
      <trkpt lat="45.91233" lon="1.14868">
        <ele>350</ele>
        <time>2026-03-23T14:53:17.000Z</time>
      </trkpt>
      <trkpt lat="45.91223" lon="1.14839">
        <ele>354</ele>
        <time>2026-03-23T14:54:12.000Z</time>
      </trkpt>
      <trkpt lat="45.91218" lon="1.14817">
        <ele>357</ele>
        <time>2026-03-23T14:54:28.000Z</time>
      </trkpt>
      <trkpt lat="45.9122" lon="1.14797">
        <ele>360</ele>
        <time>2026-03-23T14:54:49.000Z</time>
      </trkpt>
      <trkpt lat="45.91223" lon="1.14779">
        <ele>362</ele>
        <time>2026-03-23T14:55:14.000Z</time>
      </trkpt>
      <trkpt lat="45.91216" lon="1.14762">
        <ele>363</ele>
        <time>2026-03-23T14:55:30.000Z</time>
      </trkpt>
      <trkpt lat="45.91206" lon="1.14749">
        <ele>365</ele>
        <time>2026-03-23T14:55:43.000Z</time>
      </trkpt>
      <trkpt lat="45.912" lon="1.14731">
        <ele>366</ele>
        <time>2026-03-23T14:56:00.000Z</time>
      </trkpt>
      <trkpt lat="45.912" lon="1.14712">
        <ele>368</ele>
        <time>2026-03-23T14:56:14.000Z</time>
      </trkpt>
      <trkpt lat="45.91198" lon="1.14694">
        <ele>369</ele>
        <time>2026-03-23T14:56:26.000Z</time>
      </trkpt>
      <trkpt lat="45.91192" lon="1.14677">
        <ele>370</ele>
        <time>2026-03-23T14:56:39.000Z</time>
      </trkpt>
      <trkpt lat="45.91186" lon="1.1466">
        <ele>371</ele>
        <time>2026-03-23T14:56:55.000Z</time>
      </trkpt>
      <trkpt lat="45.91185" lon="1.1464">
        <ele>371</ele>
        <time>2026-03-23T14:57:10.000Z</time>
      </trkpt>
      <trkpt lat="45.91182" lon="1.14622">
        <ele>371</ele>
        <time>2026-03-23T14:57:25.000Z</time>
      </trkpt>
      <trkpt lat="45.91184" lon="1.14605">
        <ele>372</ele>
        <time>2026-03-23T14:57:49.000Z</time>
      </trkpt>
      <trkpt lat="45.91196" lon="1.14597">
        <ele>372</ele>
        <time>2026-03-23T15:01:08.000Z</time>
      </trkpt>
      <trkpt lat="45.91209" lon="1.146">
        <ele>372</ele>
        <time>2026-03-23T15:01:21.000Z</time>
      </trkpt>
      <trkpt lat="45.91223" lon="1.14601">
        <ele>372</ele>
        <time>2026-03-23T15:01:32.000Z</time>
      </trkpt>
      <trkpt lat="45.91236" lon="1.14595">
        <ele>372</ele>
        <time>2026-03-23T15:01:47.000Z</time>
      </trkpt>
      <trkpt lat="45.91248" lon="1.14587">
        <ele>372</ele>
        <time>2026-03-23T15:02:02.000Z</time>
      </trkpt>
      <trkpt lat="45.91254" lon="1.14573">
        <ele>371</ele>
        <time>2026-03-23T15:02:17.000Z</time>
      </trkpt>
      <trkpt lat="45.91246" lon="1.1456">
        <ele>371</ele>
        <time>2026-03-23T15:02:45.000Z</time>
      </trkpt>
      <trkpt lat="45.91235" lon="1.14547">
        <ele>369</ele>
        <time>2026-03-23T15:02:51.000Z</time>
      </trkpt>
      <trkpt lat="45.91224" lon="1.14537">
        <ele>368</ele>
        <time>2026-03-23T15:03:04.000Z</time>
      </trkpt>
      <trkpt lat="45.91215" lon="1.14522">
        <ele>366</ele>
        <time>2026-03-23T15:03:20.000Z</time>
      </trkpt>
      <trkpt lat="45.91208" lon="1.14507">
        <ele>365</ele>
        <time>2026-03-23T15:04:00.000Z</time>
      </trkpt>
      <trkpt lat="45.91194" lon="1.14506">
        <ele>364</ele>
        <time>2026-03-23T15:07:16.000Z</time>
      </trkpt>
      <trkpt lat="45.91181" lon="1.14512">
        <ele>364</ele>
        <time>2026-03-23T15:07:36.000Z</time>
      </trkpt>
      <trkpt lat="45.91166" lon="1.14522">
        <ele>364</ele>
        <time>2026-03-23T15:07:56.000Z</time>
      </trkpt>
      <trkpt lat="45.91153" lon="1.14521">
        <ele>363</ele>
        <time>2026-03-23T15:08:10.000Z</time>
      </trkpt>
      <trkpt lat="45.9114" lon="1.14514">
        <ele>363</ele>
        <time>2026-03-23T15:08:23.000Z</time>
      </trkpt>
      <trkpt lat="45.91124" lon="1.14505">
        <ele>361</ele>
        <time>2026-03-23T15:08:49.000Z</time>
      </trkpt>
      <trkpt lat="45.9111" lon="1.14498">
        <ele>367</ele>
        <time>2026-03-23T15:09:05.000Z</time>
      </trkpt>
      <trkpt lat="45.91096" lon="1.14497">
        <ele>373</ele>
        <time>2026-03-23T15:09:20.000Z</time>
      </trkpt>
      <trkpt lat="45.91082" lon="1.14498">
        <ele>381</ele>
        <time>2026-03-23T15:09:36.000Z</time>
      </trkpt>
      <trkpt lat="45.91069" lon="1.14498">
        <ele>389</ele>
        <time>2026-03-23T15:09:50.000Z</time>
      </trkpt>
      <trkpt lat="45.91059" lon="1.14486">
        <ele>393</ele>
        <time>2026-03-23T15:10:03.000Z</time>
      </trkpt>
      <trkpt lat="45.91047" lon="1.14476">
        <ele>396</ele>
        <time>2026-03-23T15:10:18.000Z</time>
      </trkpt>
      <trkpt lat="45.91036" lon="1.14466">
        <ele>399</ele>
        <time>2026-03-23T15:10:33.000Z</time>
      </trkpt>
      <trkpt lat="45.91029" lon="1.1445">
        <ele>401</ele>
        <time>2026-03-23T15:10:58.000Z</time>
      </trkpt>
      <trkpt lat="45.91028" lon="1.14431">
        <ele>403</ele>
        <time>2026-03-23T15:11:18.000Z</time>
      </trkpt>
      <trkpt lat="45.91025" lon="1.14411">
        <ele>404</ele>
        <time>2026-03-23T15:11:38.000Z</time>
      </trkpt>
      <trkpt lat="45.91023" lon="1.14391">
        <ele>405</ele>
        <time>2026-03-23T15:11:59.000Z</time>
      </trkpt>
      <trkpt lat="45.91021" lon="1.14372">
        <ele>406</ele>
        <time>2026-03-23T15:12:16.000Z</time>
      </trkpt>
      <trkpt lat="45.91015" lon="1.14355">
        <ele>406</ele>
        <time>2026-03-23T15:12:31.000Z</time>
      </trkpt>
      <trkpt lat="45.91011" lon="1.14337">
        <ele>407</ele>
        <time>2026-03-23T15:12:55.000Z</time>
      </trkpt>
      <trkpt lat="45.91017" lon="1.1432">
        <ele>407</ele>
        <time>2026-03-23T15:13:13.000Z</time>
      </trkpt>
      <trkpt lat="45.91022" lon="1.143">
        <ele>407</ele>
        <time>2026-03-23T15:13:30.000Z</time>
      </trkpt>
      <trkpt lat="45.9103" lon="1.14285">
        <ele>407</ele>
        <time>2026-03-23T15:13:50.000Z</time>
      </trkpt>
      <trkpt lat="45.91042" lon="1.14274">
        <ele>402</ele>
        <time>2026-03-23T15:14:01.000Z</time>
      </trkpt>
      <trkpt lat="45.91051" lon="1.1426">
        <ele>400</ele>
        <time>2026-03-23T15:14:16.000Z</time>
      </trkpt>
      <trkpt lat="45.91059" lon="1.14244">
        <ele>397</ele>
        <time>2026-03-23T15:14:33.000Z</time>
      </trkpt>
      <trkpt lat="45.9107" lon="1.14236">
        <ele>394</ele>
        <time>2026-03-23T15:14:48.000Z</time>
      </trkpt>
      <trkpt lat="45.91084" lon="1.1423">
        <ele>392</ele>
        <time>2026-03-23T15:15:07.000Z</time>
      </trkpt>
      <trkpt lat="45.91097" lon="1.1422">
        <ele>389</ele>
        <time>2026-03-23T15:15:22.000Z</time>
      </trkpt>
      <trkpt lat="45.91108" lon="1.14207">
        <ele>386</ele>
        <time>2026-03-23T15:15:36.000Z</time>
      </trkpt>
      <trkpt lat="45.91122" lon="1.142">
        <ele>383</ele>
        <time>2026-03-23T15:15:55.000Z</time>
      </trkpt>
      <trkpt lat="45.91135" lon="1.14194">
        <ele>384</ele>
        <time>2026-03-23T15:16:11.000Z</time>
      </trkpt>
      <trkpt lat="45.91149" lon="1.14191">
        <ele>384</ele>
        <time>2026-03-23T15:16:30.000Z</time>
      </trkpt>
      <trkpt lat="45.91161" lon="1.14192">
        <ele>384</ele>
        <time>2026-03-23T15:17:26.000Z</time>
      </trkpt>
      <trkpt lat="45.91153" lon="1.14199">
        <ele>383</ele>
        <time>2026-03-23T15:19:57.000Z</time>
      </trkpt>
      <trkpt lat="45.91155" lon="1.14216">
        <ele>382</ele>
        <time>2026-03-23T15:20:14.000Z</time>
      </trkpt>
      <trkpt lat="45.91165" lon="1.14231">
        <ele>381</ele>
        <time>2026-03-23T15:20:31.000Z</time>
      </trkpt>
      <trkpt lat="45.91175" lon="1.14243">
        <ele>380</ele>
        <time>2026-03-23T15:20:54.000Z</time>
      </trkpt>
      <trkpt lat="45.91188" lon="1.14248">
        <ele>379</ele>
        <time>2026-03-23T15:21:16.000Z</time>
      </trkpt>
      <trkpt lat="45.91201" lon="1.14253">
        <ele>378</ele>
        <time>2026-03-23T15:21:33.000Z</time>
      </trkpt>
      <trkpt lat="45.91214" lon="1.14261">
        <ele>377</ele>
        <time>2026-03-23T15:21:49.000Z</time>
      </trkpt>
      <trkpt lat="45.91227" lon="1.14263">
        <ele>375</ele>
        <time>2026-03-23T15:22:10.000Z</time>
      </trkpt>
      <trkpt lat="45.91239" lon="1.14257">
        <ele>374</ele>
        <time>2026-03-23T15:22:29.000Z</time>
      </trkpt>
      <trkpt lat="45.91253" lon="1.14258">
        <ele>372</ele>
        <time>2026-03-23T15:22:47.000Z</time>
      </trkpt>
      <trkpt lat="45.91267" lon="1.14256">
        <ele>371</ele>
        <time>2026-03-23T15:23:07.000Z</time>
      </trkpt>
      <trkpt lat="45.91281" lon="1.14257">
        <ele>371</ele>
        <time>2026-03-23T15:23:19.000Z</time>
      </trkpt>
      <trkpt lat="45.91294" lon="1.14261">
        <ele>372</ele>
        <time>2026-03-23T15:23:36.000Z</time>
      </trkpt>
      <trkpt lat="45.91308" lon="1.14263">
        <ele>372</ele>
        <time>2026-03-23T15:23:51.000Z</time>
      </trkpt>
      <trkpt lat="45.9132" lon="1.14259">
        <ele>373</ele>
        <time>2026-03-23T15:24:07.000Z</time>
      </trkpt>
      <trkpt lat="45.91333" lon="1.1425">
        <ele>373</ele>
        <time>2026-03-23T15:24:35.000Z</time>
      </trkpt>
      <trkpt lat="45.91347" lon="1.1425">
        <ele>372</ele>
        <time>2026-03-23T15:24:52.000Z</time>
      </trkpt>
      <trkpt lat="45.91358" lon="1.1426">
        <ele>371</ele>
        <time>2026-03-23T15:25:06.000Z</time>
      </trkpt>
      <trkpt lat="45.91372" lon="1.14267">
        <ele>371</ele>
        <time>2026-03-23T15:25:24.000Z</time>
      </trkpt>
      <trkpt lat="45.91384" lon="1.14277">
        <ele>371</ele>
        <time>2026-03-23T15:25:40.000Z</time>
      </trkpt>
      <trkpt lat="45.91397" lon="1.14284">
        <ele>372</ele>
        <time>2026-03-23T15:25:55.000Z</time>
      </trkpt>
      <trkpt lat="45.91411" lon="1.1429">
        <ele>372</ele>
        <time>2026-03-23T15:26:09.000Z</time>
      </trkpt>
      <trkpt lat="45.91425" lon="1.14293">
        <ele>372</ele>
        <time>2026-03-23T15:26:25.000Z</time>
      </trkpt>
      <trkpt lat="45.91438" lon="1.14295">
        <ele>371</ele>
        <time>2026-03-23T15:26:40.000Z</time>
      </trkpt>
      <trkpt lat="45.91453" lon="1.14297">
        <ele>370</ele>
        <time>2026-03-23T15:26:58.000Z</time>
      </trkpt>
      <trkpt lat="45.91466" lon="1.14292">
        <ele>369</ele>
        <time>2026-03-23T15:27:13.000Z</time>
      </trkpt>
      <trkpt lat="45.91479" lon="1.14289">
        <ele>367</ele>
        <time>2026-03-23T15:27:26.000Z</time>
      </trkpt>
      <trkpt lat="45.91493" lon="1.14288">
        <ele>366</ele>
        <time>2026-03-23T15:27:45.000Z</time>
      </trkpt>
      <trkpt lat="45.91506" lon="1.14295">
        <ele>365</ele>
        <time>2026-03-23T15:28:09.000Z</time>
      </trkpt>
      <trkpt lat="45.91519" lon="1.14304">
        <ele>364</ele>
        <time>2026-03-23T15:28:24.000Z</time>
      </trkpt>
      <trkpt lat="45.91531" lon="1.14314">
        <ele>364</ele>
        <time>2026-03-23T15:28:39.000Z</time>
      </trkpt>
      <trkpt lat="45.91544" lon="1.14323">
        <ele>364</ele>
        <time>2026-03-23T15:28:54.000Z</time>
      </trkpt>
      <trkpt lat="45.91557" lon="1.14331">
        <ele>365</ele>
        <time>2026-03-23T15:29:08.000Z</time>
      </trkpt>
      <trkpt lat="45.91571" lon="1.14333">
        <ele>365</ele>
        <time>2026-03-23T15:29:22.000Z</time>
      </trkpt>
      <trkpt lat="45.91584" lon="1.14326">
        <ele>366</ele>
        <time>2026-03-23T15:29:38.000Z</time>
      </trkpt>
      <trkpt lat="45.91598" lon="1.14321">
        <ele>368</ele>
        <time>2026-03-23T15:29:55.000Z</time>
      </trkpt>
      <trkpt lat="45.91611" lon="1.1432">
        <ele>369</ele>
        <time>2026-03-23T15:30:09.000Z</time>
      </trkpt>
      <trkpt lat="45.91625" lon="1.14318">
        <ele>370</ele>
        <time>2026-03-23T15:30:27.000Z</time>
      </trkpt>
      <trkpt lat="45.91638" lon="1.14311">
        <ele>370</ele>
        <time>2026-03-23T15:30:41.000Z</time>
      </trkpt>
      <trkpt lat="45.91651" lon="1.14311">
        <ele>370</ele>
        <time>2026-03-23T15:30:55.000Z</time>
      </trkpt>
      <trkpt lat="45.91664" lon="1.14318">
        <ele>370</ele>
        <time>2026-03-23T15:31:12.000Z</time>
      </trkpt>
      <trkpt lat="45.91678" lon="1.14324">
        <ele>369</ele>
        <time>2026-03-23T15:31:31.000Z</time>
      </trkpt>
      <trkpt lat="45.91691" lon="1.14329">
        <ele>369</ele>
        <time>2026-03-23T15:31:45.000Z</time>
      </trkpt>
      <trkpt lat="45.91706" lon="1.14327">
        <ele>368</ele>
        <time>2026-03-23T15:31:59.000Z</time>
      </trkpt>
      <trkpt lat="45.9172" lon="1.14331">
        <ele>366</ele>
        <time>2026-03-23T15:32:16.000Z</time>
      </trkpt>
      <trkpt lat="45.91732" lon="1.14341">
        <ele>366</ele>
        <time>2026-03-23T15:32:29.000Z</time>
      </trkpt>
      <trkpt lat="45.91743" lon="1.14353">
        <ele>366</ele>
        <time>2026-03-23T15:32:44.000Z</time>
      </trkpt>
      <trkpt lat="45.91755" lon="1.14364">
        <ele>366</ele>
        <time>2026-03-23T15:32:59.000Z</time>
      </trkpt>
      <trkpt lat="45.91769" lon="1.14364">
        <ele>365</ele>
        <time>2026-03-23T15:33:20.000Z</time>
      </trkpt>
      <trkpt lat="45.91783" lon="1.14365">
        <ele>364</ele>
        <time>2026-03-23T15:33:37.000Z</time>
      </trkpt>
      <trkpt lat="45.91797" lon="1.14368">
        <ele>363</ele>
        <time>2026-03-23T15:33:53.000Z</time>
      </trkpt>
      <trkpt lat="45.91807" lon="1.14379">
        <ele>361</ele>
        <time>2026-03-23T15:34:33.000Z</time>
      </trkpt>
      <trkpt lat="45.9182" lon="1.14374">
        <ele>359</ele>
        <time>2026-03-23T15:36:41.000Z</time>
      </trkpt>
      <trkpt lat="45.91834" lon="1.14377">
        <ele>356</ele>
        <time>2026-03-23T15:36:49.000Z</time>
      </trkpt>
      <trkpt lat="45.91848" lon="1.14373">
        <ele>354</ele>
        <time>2026-03-23T15:37:33.000Z</time>
      </trkpt>
      <trkpt lat="45.91861" lon="1.14365">
        <ele>351</ele>
        <time>2026-03-23T15:37:45.000Z</time>
      </trkpt>
      <trkpt lat="45.91875" lon="1.14365">
        <ele>349</ele>
        <time>2026-03-23T15:38:09.000Z</time>
      </trkpt>
      <trkpt lat="45.91889" lon="1.14363">
        <ele>347</ele>
        <time>2026-03-23T15:38:28.000Z</time>
      </trkpt>
      <trkpt lat="45.91902" lon="1.14359">
        <ele>345</ele>
        <time>2026-03-23T15:38:39.000Z</time>
      </trkpt>
      <trkpt lat="45.91914" lon="1.14354">
        <ele>343</ele>
        <time>2026-03-23T15:38:59.000Z</time>
      </trkpt>
      <trkpt lat="45.91916" lon="1.14332">
        <ele>342</ele>
        <time>2026-03-23T15:39:38.000Z</time>
      </trkpt>
      <trkpt lat="45.91918" lon="1.14306">
        <ele>342</ele>
        <time>2026-03-23T15:39:57.000Z</time>
      </trkpt>
      <trkpt lat="45.91925" lon="1.14286">
        <ele>342</ele>
        <time>2026-03-23T15:40:09.000Z</time>
      </trkpt>
      <trkpt lat="45.91932" lon="1.14269">
        <ele>342</ele>
        <time>2026-03-23T15:40:26.000Z</time>
      </trkpt>
      <trkpt lat="45.91944" lon="1.14264">
        <ele>342</ele>
        <time>2026-03-23T15:40:43.000Z</time>
      </trkpt>
      <trkpt lat="45.91959" lon="1.14268">
        <ele>343</ele>
        <time>2026-03-23T15:41:06.000Z</time>
      </trkpt>
      <trkpt lat="45.91973" lon="1.14273">
        <ele>343</ele>
        <time>2026-03-23T15:41:50.000Z</time>
      </trkpt>
      <trkpt lat="45.91987" lon="1.14273">
        <ele>343</ele>
        <time>2026-03-23T15:42:01.000Z</time>
      </trkpt>
      <trkpt lat="45.92002" lon="1.14272">
        <ele>343</ele>
        <time>2026-03-23T15:42:28.000Z</time>
      </trkpt>
      <trkpt lat="45.92014" lon="1.14263">
        <ele>343</ele>
        <time>2026-03-23T15:42:43.000Z</time>
      </trkpt>
      <trkpt lat="45.92026" lon="1.14251">
        <ele>342</ele>
        <time>2026-03-23T15:42:54.000Z</time>
      </trkpt>
      <trkpt lat="45.9204" lon="1.14243">
        <ele>340</ele>
        <time>2026-03-23T15:43:12.000Z</time>
      </trkpt>
      <trkpt lat="45.92053" lon="1.14234">
        <ele>340</ele>
        <time>2026-03-23T15:43:29.000Z</time>
      </trkpt>
      <trkpt lat="45.92066" lon="1.14227">
        <ele>342</ele>
        <time>2026-03-23T15:43:47.000Z</time>
      </trkpt>
      <trkpt lat="45.92081" lon="1.14225">
        <ele>343</ele>
        <time>2026-03-23T15:44:04.000Z</time>
      </trkpt>
      <trkpt lat="45.92095" lon="1.14229">
        <ele>345</ele>
        <time>2026-03-23T15:44:19.000Z</time>
      </trkpt>
      <trkpt lat="45.92106" lon="1.14222">
        <ele>345</ele>
        <time>2026-03-23T15:44:37.000Z</time>
      </trkpt>
      <trkpt lat="45.92112" lon="1.14206">
        <ele>345</ele>
        <time>2026-03-23T15:44:58.000Z</time>
      </trkpt>
      <trkpt lat="45.92113" lon="1.14186">
        <ele>345</ele>
        <time>2026-03-23T15:45:28.000Z</time>
      </trkpt>
      <trkpt lat="45.92116" lon="1.1416">
        <ele>346</ele>
        <time>2026-03-23T15:46:59.000Z</time>
      </trkpt>
      <trkpt lat="45.92121" lon="1.1414">
        <ele>346</ele>
        <time>2026-03-23T15:47:29.000Z</time>
      </trkpt>
      <trkpt lat="45.92123" lon="1.1412">
        <ele>347</ele>
        <time>2026-03-23T15:47:49.000Z</time>
      </trkpt>
      <trkpt lat="45.92124" lon="1.141">
        <ele>347</ele>
        <time>2026-03-23T15:48:02.000Z</time>
      </trkpt>
      <trkpt lat="45.92125" lon="1.14079">
        <ele>348</ele>
        <time>2026-03-23T15:48:18.000Z</time>
      </trkpt>
      <trkpt lat="45.92128" lon="1.1406">
        <ele>349</ele>
        <time>2026-03-23T15:48:31.000Z</time>
      </trkpt>
      <trkpt lat="45.92129" lon="1.14041">
        <ele>350</ele>
        <time>2026-03-23T15:48:45.000Z</time>
      </trkpt>
      <trkpt lat="45.9213" lon="1.14022">
        <ele>351</ele>
        <time>2026-03-23T15:49:01.000Z</time>
      </trkpt>
      <trkpt lat="45.92133" lon="1.14003">
        <ele>352</ele>
        <time>2026-03-23T15:49:15.000Z</time>
      </trkpt>
      <trkpt lat="45.92139" lon="1.13985">
        <ele>352</ele>
        <time>2026-03-23T15:49:29.000Z</time>
      </trkpt>
      <trkpt lat="45.92143" lon="1.13965">
        <ele>353</ele>
        <time>2026-03-23T15:49:53.000Z</time>
      </trkpt>
      <trkpt lat="45.92148" lon="1.13946">
        <ele>354</ele>
        <time>2026-03-23T15:50:09.000Z</time>
      </trkpt>
      <trkpt lat="45.92148" lon="1.13926">
        <ele>354</ele>
        <time>2026-03-23T15:50:23.000Z</time>
      </trkpt>
      <trkpt lat="45.92147" lon="1.13907">
        <ele>354</ele>
        <time>2026-03-23T15:51:03.000Z</time>
      </trkpt>
      <trkpt lat="45.92156" lon="1.13891">
        <ele>355</ele>
        <time>2026-03-23T15:51:36.000Z</time>
      </trkpt>
    </trkseg>
  </trk>
</gpx>